createdAt,value
2022-10-18T00:01:43.414Z,101094.34
2022-10-18T00:04:13.508Z,101095.19
2022-10-18T00:06:43.941Z,101095.97
2022-10-18T00:09:14.493Z,101096.41
2022-10-18T00:11:44.959Z,101095.56
2022-10-18T00:14:17.413Z,101092.34
2022-10-18T00:16:48.008Z,101088.69
2022-10-18T00:19:18.613Z,101087.06
2022-10-18T00:21:49.023Z,101080.59
2022-10-18T00:24:18.775Z,101076.94
2022-10-18T00:26:49.049Z,101082.63
2022-10-18T00:29:21.027Z,101079.78
2022-10-18T00:31:51.429Z,101082.19
2022-10-18T00:34:21.786Z,101072.47
2022-10-18T00:36:51.904Z,101074.88
2022-10-18T00:39:24.337Z,101073.59
2022-10-18T00:41:54.572Z,101065.06
2022-10-18T00:45:15.277Z,101063.44
2022-10-18T00:47:48.037Z,101069.50
2022-10-18T00:50:18.785Z,101061.00
2022-10-18T00:52:55.040Z,101058.56
2022-10-18T00:55:25.410Z,101059.38
2022-10-18T00:57:56.983Z,101057.34
2022-10-18T01:00:29.318Z,101063.81
2022-10-18T01:03:00.784Z,101058.16
2022-10-18T01:05:31.221Z,101065.03
2022-10-18T01:08:44.366Z,101053.69
2022-10-18T01:11:47.996Z,101062.97
2022-10-18T01:14:36.378Z,101059.34
2022-10-18T01:17:21.586Z,101063.38
2022-10-18T01:20:36.569Z,101062.53
2022-10-18T01:23:13.534Z,101072.25
2022-10-18T01:25:58.705Z,101066.97
2022-10-18T01:28:51.678Z,101069.38
2022-10-18T01:31:29.010Z,101068.16
2022-10-18T01:34:04.524Z,101068.16
2022-10-18T01:36:37.909Z,101065.72
2022-10-18T01:39:14.835Z,101066.91
2022-10-18T01:41:48.055Z,101059.63
2022-10-18T01:44:25.937Z,101070.16
2022-10-18T01:47:00.311Z,101073.38
2022-10-18T01:49:30.602Z,101061.19
2022-10-18T01:52:00.886Z,101061.56
2022-10-18T01:54:37.044Z,101066.78
2022-10-18T01:57:15.189Z,101058.69
2022-10-18T01:59:58.836Z,101074.88
2022-10-18T02:02:49.509Z,101058.66
2022-10-18T02:05:32.755Z,101060.69
2022-10-18T02:08:22.878Z,101064.31
2022-10-18T02:10:59.600Z,101066.34
2022-10-18T02:13:38.596Z,101070.38
2022-10-18T02:16:15.440Z,101067.56
2022-10-18T02:18:53.072Z,101059.84
2022-10-18T02:21:27.365Z,101059.84
2022-10-18T02:24:01.595Z,101063.50
2022-10-18T02:26:32.629Z,101058.22
2022-10-18T02:29:03.378Z,101058.22
2022-10-18T02:31:41.842Z,101063.09
2022-10-18T02:34:23.407Z,101059.41
2022-10-18T02:36:57.802Z,101056.56
2022-10-18T02:39:33.950Z,101071.50
2022-10-18T02:42:07.234Z,101063.41
2022-10-18T02:44:38.117Z,101064.59
2022-10-18T02:47:12.580Z,101065.38
2022-10-18T02:49:44.351Z,101066.59
2022-10-18T02:52:14.594Z,101064.97
2022-10-18T02:54:44.906Z,101068.59
2022-10-18T02:57:14.551Z,101081.53
2022-10-18T02:59:44.250Z,101074.25
2022-10-18T03:02:14.385Z,101079.91
2022-10-18T03:04:46.539Z,101079.91
2022-10-18T03:07:16.332Z,101077.06
2022-10-18T03:09:46.599Z,101072.59
2022-10-18T03:12:16.951Z,101082.75
2022-10-18T03:14:47.293Z,101077.06
2022-10-18T03:17:17.682Z,101073.84
2022-10-18T03:19:49.912Z,101074.25
2022-10-18T03:22:19.706Z,101073.44
2022-10-18T03:24:50.054Z,101077.47
2022-10-18T03:27:20.324Z,101079.47
2022-10-18T03:29:50.491Z,101081.50
2022-10-18T03:32:20.758Z,101079.03
2022-10-18T03:34:53.025Z,101083.06
2022-10-18T03:37:24.008Z,101088.34
2022-10-18T03:39:54.359Z,101087.50
2022-10-18T03:42:24.348Z,101098.03
2022-10-18T03:44:54.822Z,101094.38
2022-10-18T03:47:24.978Z,101091.53
2022-10-18T03:49:57.544Z,101098.84
2022-10-18T03:52:27.440Z,101097.22
2022-10-18T03:54:57.261Z,101091.94
2022-10-18T03:57:27.798Z,101100.84
2022-10-18T03:59:57.511Z,101108.50
2022-10-18T04:02:28.195Z,101103.25
2022-10-18T04:05:00.559Z,101104.44
2022-10-18T04:07:30.641Z,101109.69
2022-10-18T04:10:00.666Z,101104.00
2022-10-18T04:12:31.181Z,101121.00
2022-10-18T04:15:01.603Z,101115.34
2022-10-18T04:17:31.878Z,101118.59
2022-10-18T04:20:04.130Z,101115.78
2022-10-18T04:22:34.431Z,101115.78
2022-10-18T04:25:04.469Z,101121.84
2022-10-18T04:27:34.910Z,101124.28
2022-10-18T04:30:04.737Z,101122.69
2022-10-18T04:32:35.966Z,101122.34
2022-10-18T04:35:09.979Z,101125.25
2022-10-18T04:37:40.278Z,101122.47
2022-10-18T04:40:12.207Z,101125.41
2022-10-18T04:42:42.590Z,101127.47
2022-10-18T04:45:13.809Z,101141.31
2022-10-18T04:47:44.070Z,101143.88
2022-10-18T04:50:15.185Z,101146.34
2022-10-18T04:52:45.440Z,101149.66
2022-10-18T04:55:15.731Z,101153.38
2022-10-18T04:57:46.126Z,101153.84
2022-10-18T05:00:17.926Z,101155.97
2022-10-18T05:02:48.251Z,101162.16
2022-10-18T05:05:20.764Z,101168.31
2022-10-18T05:07:50.873Z,101174.91
2022-10-18T05:10:21.047Z,101173.75
2022-10-18T05:12:51.451Z,101181.13
2022-10-18T05:15:21.561Z,101182.38
2022-10-18T05:17:51.763Z,101184.50
2022-10-18T05:20:23.735Z,101180.47
2022-10-18T05:22:54.077Z,101189.44
2022-10-18T05:25:24.356Z,101183.00
2022-10-18T05:27:54.928Z,101193.59
2022-10-18T05:30:27.012Z,101195.66
2022-10-18T05:32:57.098Z,101198.19
2022-10-18T05:35:29.117Z,101188.88
2022-10-18T05:37:58.988Z,101195.81
2022-10-18T05:40:29.132Z,101199.50
2022-10-18T05:42:59.536Z,101196.69
2022-10-18T05:45:29.873Z,101193.06
2022-10-18T05:48:00.728Z,101184.97
2022-10-18T05:50:35.483Z,101191.09
2022-10-18T05:53:12.343Z,101191.50
2022-10-18T05:55:42.561Z,101193.56
2022-10-18T05:58:12.496Z,101192.31
2022-10-18T06:00:42.476Z,101191.53
2022-10-18T06:03:13.112Z,101182.59
2022-10-18T06:05:44.893Z,101182.97
2022-10-18T06:08:14.505Z,101174.81
2022-10-18T06:10:44.414Z,101177.69
2022-10-18T06:13:14.568Z,101178.88
2022-10-18T06:15:44.933Z,101182.91
2022-10-18T06:18:14.643Z,101180.84
2022-10-18T06:20:46.603Z,101176.72
2022-10-18T06:23:16.971Z,101181.56
2022-10-18T06:25:46.875Z,101178.75
2022-10-18T06:28:16.945Z,101167.28
2022-10-18T06:30:47.624Z,101178.25
2022-10-18T06:33:17.162Z,101183.09
2022-10-18T06:35:58.762Z,101191.56
2022-10-18T06:38:29.672Z,101183.78
2022-10-18T06:41:01.935Z,101184.97
2022-10-18T06:43:32.388Z,101179.22
2022-10-18T06:46:05.606Z,101189.38
2022-10-18T06:48:36.244Z,101195.00
2022-10-18T06:51:10.497Z,101183.56
2022-10-18T06:53:44.322Z,101193.72
2022-10-18T06:56:23.725Z,101188.81
2022-10-18T06:58:53.950Z,101183.88
2022-10-18T07:01:24.946Z,101184.66
2022-10-18T07:03:56.620Z,101184.25
2022-10-18T07:06:28.909Z,101183.00
2022-10-18T07:08:59.335Z,101189.50
2022-10-18T07:11:30.185Z,101183.38
2022-10-18T07:14:05.327Z,101182.63
2022-10-18T07:16:36.969Z,101179.38
2022-10-18T07:19:06.948Z,101181.84
2022-10-18T07:21:39.082Z,101176.56
2022-10-18T07:24:09.206Z,101181.41
2022-10-18T07:26:39.914Z,101176.91
2022-10-18T07:29:14.094Z,101182.16
2022-10-18T07:31:45.657Z,101176.00
2022-10-18T07:34:16.804Z,101165.78
2022-10-18T07:36:52.867Z,101162.47
2022-10-18T07:39:23.297Z,101162.09
2022-10-18T07:41:53.148Z,101171.09
2022-10-18T07:44:23.634Z,101171.09
2022-10-18T07:46:53.591Z,101165.38
2022-10-18T07:49:24.310Z,101159.66
2022-10-18T07:51:56.548Z,101160.50
2022-10-18T07:54:26.455Z,101160.03
2022-10-18T07:56:58.882Z,101156.72
2022-10-18T07:59:29.067Z,101150.53
2022-10-18T08:01:59.053Z,101167.22
2022-10-18T08:04:29.026Z,101166.81
2022-10-18T08:07:00.886Z,101166.41
2022-10-18T08:09:32.138Z,101162.34
2022-10-18T08:12:03.066Z,101164.03
2022-10-18T08:14:33.459Z,101160.38
2022-10-18T08:17:03.739Z,101162.03
2022-10-18T08:19:33.452Z,101157.16
2022-10-18T08:22:05.775Z,101154.34
2022-10-18T08:24:36.011Z,101152.31
2022-10-18T08:27:06.373Z,101151.94
2022-10-18T08:29:36.648Z,101144.13
2022-10-18T08:32:08.313Z,101141.22
2022-10-18T08:37:16.256Z,101137.88
2022-10-18T08:39:46.482Z,101134.97
2022-10-18T08:42:39.392Z,101136.56
2022-10-18T08:45:37.471Z,101132.06
2022-10-18T08:48:19.391Z,101133.28
2022-10-18T08:50:52.815Z,101135.28
2022-10-18T08:53:37.763Z,101131.19
2022-10-18T08:56:15.572Z,101124.25
2022-10-18T08:58:46.841Z,101120.94
2022-10-18T09:01:41.971Z,101120.53
2022-10-18T09:04:43.279Z,101117.63
2022-10-18T09:07:30.226Z,101116.00
2022-10-18T09:10:16.492Z,101120.09
2022-10-18T09:13:33.034Z,101103.41
2022-10-18T09:16:07.284Z,101099.31
2022-10-18T09:18:59.013Z,101107.50
2022-10-18T09:21:47.395Z,101097.28
2022-10-18T09:24:27.491Z,101090.72
2022-10-18T09:27:11.752Z,101098.41
2022-10-18T09:30:01.087Z,101095.16
2022-10-18T09:32:50.225Z,101097.56
2022-10-18T09:35:26.725Z,101087.38
2022-10-18T09:38:05.900Z,101084.09
2022-10-18T09:40:49.086Z,101080.81
2022-10-18T09:43:27.915Z,101079.63
2022-10-18T09:45:59.566Z,101073.91
2022-10-18T09:48:36.895Z,101075.13
2022-10-18T09:51:13.576Z,101071.09
2022-10-18T09:53:54.012Z,101072.34
2022-10-18T09:56:33.867Z,101071.97
2022-10-18T09:59:08.332Z,101066.66
2022-10-18T10:01:39.054Z,101064.22
2022-10-18T10:04:10.471Z,101068.75
2022-10-18T10:06:42.375Z,101064.28
2022-10-18T10:09:19.898Z,101067.56
2022-10-18T10:11:52.340Z,101061.47
2022-10-18T10:14:27.157Z,101064.72
2022-10-18T10:17:00.095Z,101058.66
2022-10-18T10:19:36.713Z,101061.13
2022-10-18T10:22:11.746Z,101062.78
2022-10-18T10:24:51.873Z,101062.41
2022-10-18T10:27:32.420Z,101054.25
2022-10-18T10:30:07.475Z,101042.84
2022-10-18T10:32:50.808Z,101034.75
2022-10-18T10:38:29.259Z,101047.88
2022-10-18T10:41:00.479Z,101039.75
2022-10-18T10:43:38.677Z,101046.69
2022-10-18T10:46:15.487Z,101037.72
2022-10-18T10:49:00.611Z,101039.81
2022-10-18T10:51:50.586Z,101045.97
2022-10-18T10:54:35.719Z,101037.88
2022-10-18T10:57:19.221Z,101044.41
2022-10-18T10:59:52.693Z,101038.75
2022-10-18T11:02:32.867Z,101040.41
2022-10-18T11:05:26.474Z,101038.00
2022-10-18T11:08:02.827Z,101033.59
2022-10-18T11:10:41.071Z,101042.59
2022-10-18T11:13:27.116Z,101034.94
2022-10-18T11:16:07.022Z,101038.66
2022-10-18T11:18:41.414Z,101037.44
2022-10-18T11:21:20.066Z,101035.81
2022-10-18T11:23:50.768Z,101034.59
2022-10-18T11:26:43.705Z,101029.31
2022-10-18T11:29:41.107Z,101029.34
2022-10-18T11:32:29.369Z,101031.81
2022-10-18T11:35:23.642Z,101026.53
2022-10-18T11:38:13.943Z,101026.13
2022-10-18T11:41:16.874Z,101027.38
2022-10-18T11:44:02.322Z,101023.72
2022-10-18T11:46:57.220Z,101037.22
2022-10-18T11:50:05.638Z,101029.91
2022-10-18T11:52:50.305Z,101030.75
2022-10-18T11:55:40.667Z,101026.25
2022-10-18T11:58:39.050Z,101028.72
2022-10-18T12:01:26.150Z,101025.50
2022-10-18T12:04:10.588Z,101022.69
2022-10-18T12:06:44.185Z,101025.94
2022-10-18T12:09:26.968Z,101022.69
2022-10-18T12:12:03.716Z,101020.25
2022-10-18T12:14:42.079Z,101016.63
2022-10-18T12:17:51.358Z,101020.69
2022-10-18T12:20:20.641Z,101016.59
2022-10-18T12:23:01.678Z,101014.16
2022-10-18T12:25:40.348Z,101009.69
2022-10-18T12:28:25.083Z,101008.47
2022-10-18T12:31:04.888Z,101005.22
2022-10-18T12:33:44.693Z,100999.97
2022-10-18T12:36:37.438Z,101004.47
2022-10-18T12:39:28.985Z,101010.56
2022-10-18T12:42:25.229Z,101002.03
2022-10-18T12:45:07.741Z,101008.56
2022-10-18T12:47:38.424Z,101005.75
2022-10-18T12:50:29.431Z,100998.41
2022-10-18T12:53:18.099Z,101003.75
2022-10-18T12:55:52.136Z,101002.13
2022-10-18T12:58:43.024Z,100998.06
2022-10-18T13:01:13.463Z,100993.59
2022-10-18T13:04:04.394Z,100995.25
2022-10-18T13:07:23.944Z,100995.28
2022-10-18T13:10:43.017Z,100993.25
2022-10-18T13:13:59.267Z,101001.00
2022-10-18T13:16:44.826Z,101003.00
2022-10-18T13:19:27.210Z,100993.25
2022-10-18T13:22:25.442Z,100999.78
2022-10-18T13:25:07.056Z,100996.50
2022-10-18T13:27:50.261Z,101001.41
2022-10-18T13:30:56.845Z,100989.63
2022-10-18T13:33:35.302Z,100998.56
2022-10-18T13:36:08.948Z,100995.34
2022-10-18T13:39:02.567Z,100998.19
2022-10-18T13:41:57.478Z,100990.84
2022-10-18T13:44:32.284Z,100993.28
2022-10-18T13:47:38.601Z,100997.34
2022-10-18T13:50:33.350Z,100989.63
2022-10-18T13:53:48.223Z,100982.75
2022-10-18T13:56:53.793Z,100985.63
2022-10-18T13:59:47.930Z,100984.78
2022-10-18T14:02:59.754Z,100988.88
2022-10-18T14:05:53.315Z,100983.16
2022-10-18T14:08:37.560Z,100981.16
2022-10-18T14:11:21.538Z,100979.53
2022-10-18T14:13:58.703Z,100987.66
2022-10-18T14:16:39.437Z,100977.50
2022-10-18T14:19:24.315Z,100982.41
2022-10-18T14:22:06.970Z,100967.38
2022-10-18T14:24:38.239Z,100975.50
2022-10-18T14:27:28.201Z,100982.81
2022-10-18T14:30:17.599Z,100982.44
2022-10-18T14:32:50.320Z,100980.03
2022-10-18T14:35:33.738Z,100982.47
2022-10-18T14:38:06.336Z,100988.94
2022-10-18T14:40:40.802Z,100990.59
2022-10-18T14:43:16.288Z,100983.25
2022-10-18T14:45:46.730Z,100989.78
2022-10-18T14:48:20.122Z,100986.53
2022-10-18T14:51:01.185Z,100988.97
2022-10-18T14:53:39.999Z,100988.59
2022-10-18T14:56:23.282Z,100984.50
2022-10-18T14:58:54.938Z,100992.66
2022-10-18T15:01:30.086Z,100991.84
2022-10-18T15:04:04.512Z,100986.16
2022-10-18T15:06:36.747Z,100993.47
2022-10-18T15:09:08.113Z,101004.84
2022-10-18T15:11:38.814Z,100998.34
2022-10-18T15:14:18.321Z,101006.47
2022-10-18T15:16:51.295Z,100997.16
2022-10-18T15:19:34.813Z,101005.28
2022-10-18T15:25:20.016Z,101007.31
2022-10-18T15:27:53.373Z,101006.94
2022-10-18T15:30:29.351Z,101009.75
2022-10-18T15:33:04.099Z,101016.69
2022-10-18T15:35:37.627Z,101011.41
2022-10-18T15:38:28.753Z,101007.34
2022-10-18T15:40:58.896Z,101008.16
2022-10-18T15:43:39.646Z,101018.31
2022-10-18T15:46:32.421Z,101015.91
2022-10-18T15:49:53.295Z,101018.75
2022-10-18T15:52:38.785Z,101023.63
2022-10-18T15:55:51.085Z,101027.69
2022-10-18T15:58:27.580Z,101033.38
2022-10-18T16:01:02.375Z,101028.50
2022-10-18T16:03:36.286Z,101034.19
2022-10-18T16:06:11.359Z,101034.59
2022-10-18T16:08:45.904Z,101041.09
2022-10-18T16:11:20.860Z,101040.69
2022-10-18T16:13:54.019Z,101044.75
2022-10-18T16:16:30.441Z,101039.88
2022-10-18T16:19:01.283Z,101044.75
2022-10-18T16:21:34.086Z,101043.94
2022-10-18T16:24:04.851Z,101048.84
2022-10-18T16:26:37.475Z,101045.16
2022-10-18T16:29:08.950Z,101051.25
2022-10-18T16:31:39.280Z,101048.81
2022-10-18T16:34:11.532Z,101054.13
2022-10-18T16:36:41.952Z,101048.00
2022-10-18T16:39:20.001Z,101060.19
2022-10-18T16:41:56.369Z,101050.88
2022-10-18T16:44:26.802Z,101049.22
2022-10-18T16:46:57.281Z,101052.09
2022-10-18T16:49:29.166Z,101050.03
2022-10-18T16:51:59.831Z,101048.41
2022-10-18T16:54:29.836Z,101049.22
2022-10-18T16:57:02.642Z,101050.88
2022-10-18T16:59:34.070Z,101054.09
2022-10-18T17:02:09.248Z,101057.78
2022-10-18T17:04:39.154Z,101058.19
2022-10-18T17:07:10.630Z,101067.09
2022-10-18T17:09:40.540Z,101062.25
2022-10-18T17:12:12.141Z,101063.06
2022-10-18T17:14:53.679Z,101065.47
2022-10-18T17:17:23.970Z,101061.84
2022-10-18T17:19:53.959Z,101060.22
2022-10-18T17:22:24.660Z,101062.63
2022-10-18T17:24:55.085Z,101068.75
2022-10-18T17:27:28.144Z,101069.53
2022-10-18T17:29:58.105Z,101074.44
2022-10-18T17:32:28.552Z,101072.78
2022-10-18T17:34:59.195Z,101067.09
2022-10-18T17:37:29.849Z,101072.38
2022-10-18T17:39:59.960Z,101071.56
2022-10-18T17:42:31.820Z,101072.78
2022-10-18T17:45:02.295Z,101071.16
2022-10-18T17:47:32.869Z,101073.16
2022-10-18T17:50:03.302Z,101071.94
2022-10-18T17:52:33.631Z,101084.53
2022-10-18T17:55:04.398Z,101079.28
2022-10-18T17:57:36.547Z,101079.69
2022-10-18T18:00:16.038Z,101078.84
2022-10-18T18:02:47.226Z,101076.44
2022-10-18T18:05:17.743Z,101073.97
2022-10-18T18:07:48.147Z,101078.44
2022-10-18T18:10:18.923Z,101084.53
2022-10-18T18:12:51.373Z,101071.53
2022-10-18T18:15:21.449Z,101075.59
2022-10-18T18:17:58.619Z,101083.34
2022-10-18T18:20:28.618Z,101088.19
2022-10-18T18:22:58.944Z,101081.69
2022-10-18T18:25:29.380Z,101082.91
2022-10-18T18:28:05.111Z,101077.22
2022-10-18T18:30:54.429Z,101079.28
2022-10-18T18:33:24.549Z,101071.97
2022-10-18T18:35:59.187Z,101072.75
2022-10-18T18:38:29.899Z,101078.03
2022-10-18T18:41:09.120Z,101073.19
2022-10-18T18:43:43.554Z,101073.97
2022-10-18T18:46:14.973Z,101074.38
2022-10-18T18:48:45.592Z,101075.59
2022-10-18T18:51:18.096Z,101073.97
2022-10-18T18:53:49.716Z,101070.34
2022-10-18T18:56:23.174Z,101067.88
2022-10-18T18:58:57.183Z,101066.25
2022-10-18T19:01:30.222Z,101067.47
2022-10-18T19:04:02.029Z,101063.03
2022-10-18T19:06:37.044Z,101058.13
2022-10-18T19:09:13.617Z,101056.09
2022-10-18T19:11:43.803Z,101061.38
2022-10-18T19:14:16.727Z,101057.34
2022-10-18T19:16:51.115Z,101062.59
2022-10-18T19:19:24.631Z,101054.06
2022-10-18T19:21:57.321Z,101058.94
2022-10-18T19:24:30.548Z,101051.63
2022-10-18T19:27:03.368Z,101058.13
2022-10-18T19:29:38.888Z,101050.81
2022-10-18T19:32:13.693Z,101050.00
2022-10-18T19:34:43.965Z,101053.25
2022-10-18T19:37:15.775Z,101039.88
2022-10-18T19:39:46.154Z,101043.09
2022-10-18T19:42:20.499Z,101043.09
2022-10-18T19:44:56.532Z,101041.47
2022-10-18T19:47:27.003Z,101039.81
2022-10-18T19:49:57.239Z,101034.16
2022-10-18T19:52:28.872Z,101036.19
2022-10-18T19:54:58.736Z,101038.63
2022-10-18T19:57:29.333Z,101034.97
2022-10-18T20:00:02.640Z,101031.31
2022-10-18T20:02:35.312Z,101038.19
2022-10-18T20:05:05.862Z,101033.75
2022-10-18T20:07:36.863Z,101030.09
2022-10-18T20:10:07.994Z,101038.19
2022-10-18T20:12:38.635Z,101037.41
2022-10-18T20:15:13.527Z,101028.88
2022-10-18T20:17:43.710Z,101031.31
2022-10-18T20:20:14.662Z,101023.19
2022-10-18T20:22:44.469Z,101035.75
2022-10-18T20:25:14.842Z,101030.06
2022-10-18T20:27:45.448Z,101027.59
2022-10-18T20:30:17.071Z,101032.47
2022-10-18T20:32:47.056Z,101024.38
2022-10-18T20:35:17.677Z,101023.13
2022-10-18T20:37:48.350Z,101025.97
2022-10-18T20:40:19.459Z,101020.28
2022-10-18T20:42:49.934Z,101019.47
2022-10-18T20:45:22.284Z,101015.84
2022-10-18T20:47:52.488Z,101019.06
2022-10-18T20:50:22.710Z,101021.09
2022-10-18T20:52:52.894Z,101019.47
2022-10-18T20:55:22.455Z,101021.50
2022-10-18T20:57:52.891Z,101026.78
2022-10-18T21:00:25.611Z,101026.38
2022-10-18T21:02:56.080Z,101021.06
2022-10-18T21:05:27.532Z,101011.75
2022-10-18T21:07:57.942Z,101019.44
2022-10-18T21:10:28.699Z,101023.91
2022-10-18T21:12:59.334Z,101012.53
2022-10-18T21:15:33.360Z,101012.53
2022-10-18T21:18:03.696Z,101010.91
2022-10-18T21:20:34.119Z,101015.38
2022-10-18T21:23:04.759Z,101012.09
2022-10-18T21:25:35.124Z,101010.47
2022-10-18T21:28:05.358Z,101012.06
2022-10-18T21:30:37.918Z,101010.84
2022-10-18T21:33:09.457Z,101010.44
2022-10-18T21:35:40.806Z,100998.69
2022-10-18T21:38:11.466Z,101002.69
2022-10-18T21:40:44.912Z,101007.97
2022-10-18T21:43:14.600Z,101004.28
2022-10-18T21:45:46.563Z,101001.88
2022-10-18T21:48:16.822Z,100994.56
2022-10-18T21:50:47.212Z,100989.28
2022-10-18T21:53:17.118Z,100984.81
2022-10-18T21:55:47.969Z,100982.38
2022-10-18T21:58:18.015Z,100981.56
2022-10-18T22:00:49.985Z,100986.44
2022-10-18T22:03:23.624Z,100980.34
2022-10-18T22:06:01.807Z,100973.84
2022-10-18T22:08:33.217Z,100973.44
2022-10-18T22:11:04.060Z,100966.94
2022-10-18T22:13:34.327Z,100972.19
2022-10-18T22:16:09.694Z,100960.03
2022-10-18T22:18:40.232Z,100966.94
2022-10-18T22:21:13.664Z,100952.75
2022-10-18T22:23:46.791Z,100950.31
2022-10-18T22:26:20.796Z,100951.13
2022-10-18T22:28:55.888Z,100948.28
2022-10-18T22:31:30.868Z,100953.16
2022-10-18T22:34:03.645Z,100951.13
2022-10-18T22:36:34.951Z,100945.84
2022-10-18T22:39:06.801Z,100951.53
2022-10-18T22:41:37.963Z,100943.81
2022-10-18T22:44:08.644Z,100945.00
2022-10-18T22:46:41.241Z,100941.38
2022-10-18T22:49:11.031Z,100942.19
2022-10-18T22:51:41.369Z,100941.38
2022-10-18T22:54:11.720Z,100940.59
2022-10-18T22:56:42.232Z,100938.94
2022-10-18T22:59:12.750Z,100928.81
2022-10-18T23:01:44.597Z,100935.69
2022-10-18T23:04:14.332Z,100924.72
2022-10-18T23:06:44.852Z,100929.19
2022-10-18T23:09:15.429Z,100923.13
2022-10-18T23:11:47.425Z,100922.28
2022-10-18T23:14:17.877Z,100926.34
2022-10-18T23:16:50.323Z,100932.03
2022-10-18T23:19:20.822Z,100933.22
2022-10-18T23:21:50.651Z,100927.97
2022-10-18T23:24:20.934Z,100938.50
2022-10-18T23:26:51.324Z,100925.53
2022-10-18T23:29:21.803Z,100929.59
2022-10-18T23:31:54.145Z,100926.75
2022-10-18T23:34:24.192Z,100923.06
2022-10-18T23:36:54.061Z,100926.31
2022-10-18T23:39:23.972Z,100925.50
2022-10-18T23:41:54.376Z,100917.38
2022-10-18T23:44:24.762Z,100923.06
2022-10-18T23:46:56.481Z,100916.59
2022-10-18T23:49:26.739Z,100912.50
2022-10-18T23:51:57.242Z,100913.34
2022-10-18T23:54:27.714Z,100909.28
2022-10-18T23:56:58.424Z,100909.28
2022-10-18T23:59:28.724Z,100904.81
